Terminal Aerodrome Forecast
Issued by NWS

Home | Current Version | Previous Version | Text Only | Print | Product List | Glossary On
Versions: 1 2 3 4 5 6 7 8 9 10 11 12 13 14
000
FTUS44 KBMX 251603 AAB
TAFTCL
TAF AMD
KTCL 251603Z 2516/2612 17015G25KT P6SM VCSH OVC035
     FM251700 19015G30KT 4SM TSRA BR OVC020CB
     FM251800 18010G20KT 4SM RA VCTS OVC025CB
     FM252200 18010KT 5SM SHRA BKN025 BKN050
     FM260600 17010KT P6SM BKN015=

USA.gov is the U.S. government's official web portal to all federal, state and local government web resources and services.